Time;durP1;ratioP1;P1;durP2;ratioP2;P2;SDS_P1;SDS_P2;PMS_P1;PMS_P2;Temp;Humidity;BMP_temperature;BMP_pressure;BME280_temperature;BME280_humidity;BME280_pressure;Samples;Min_cycle;Max_cycle;Signal;HPM_P1;HPM_P2
2024/01/04 00:03:54;;;;;;;0.43;0.43;;;;;;;8.33;100.00;99503.34;10418569;28;20037;-70
2024/01/04 00:08:55;;;;;;;0.60;0.60;;;;;;;8.32;100.00;99523.25;10418016;28;20029;-69
2024/01/04 00:13:55;;;;;;;0.38;0.38;;;;;;;8.36;100.00;99530.69;10418242;28;20155;-70
2024/01/04 00:18:55;;;;;;;5.00;1.90;;;;;;;8.37;100.00;99536.91;10415436;28;20045;-69
2024/01/04 00:23:57;;;;;;;0.40;0.40;;;;;;;8.40;100.00;99530.28;10417184;28;20040;-69
2024/01/04 00:28:58;;;;;;;0.57;0.57;;;;;;;8.42;100.00;99544.38;10415022;28;20057;-70
2024/01/04 00:33:58;;;;;;;0.60;0.60;;;;;;;8.45;100.00;99547.47;10417298;28;20064;-69
2024/01/04 00:38:58;;;;;;;3.08;2.78;;;;;;;8.49;100.00;99555.97;10432296;28;20087;-69
2024/01/04 00:43:59;;;;;;;0.40;0.40;;;;;;;8.49;100.00;99575.69;10416575;28;20076;-69
2024/01/04 00:48:59;;;;;;;30.80;3.20;;;;;;;8.54;100.00;99583.94;10417545;28;20029;-70
2024/01/04 00:54:00;;;;;;;2.85;2.67;;;;;;;8.43;100.00;99600.00;10430004;28;20471;-70
2024/01/04 00:59:00;;;;;;;0.63;0.63;;;;;;;8.31;100.00;99594.41;10425460;28;20033;-70
2024/01/04 01:04:01;;;;;;;0.40;0.40;;;;;;;8.28;100.00;99597.53;10416561;28;20029;-70
2024/01/04 01:09:02;;;;;;;0.50;0.50;;;;;;;8.13;100.00;99604.00;10431291;28;20026;-70
2024/01/04 01:14:02;;;;;;;2.45;2.35;;;;;;;7.95;100.00;99620.06;10415525;28;20504;-70
2024/01/04 01:19:03;;;;;;;0.50;0.50;;;;;;;7.90;100.00;99622.56;10417143;28;20030;-70
2024/01/04 01:24:03;;;;;;;0.40;0.40;;;;;;;8.05;100.00;99627.72;10420488;28;20110;-70
2024/01/04 01:29:04;;;;;;;37.25;2.95;;;;;;;8.11;100.00;99641.16;10416494;28;20469;-69
2024/01/04 01:34:04;;;;;;;1.13;1.13;;;;;;;8.23;100.00;99649.44;10414374;28;20484;-70
2024/01/04 01:39:05;;;;;;;0.50;0.50;;;;;;;8.27;100.00;99655.22;10429457;28;20044;-70
2024/01/04 01:44:05;;;;;;;0.55;0.55;;;;;;;8.37;100.00;99667.22;10414849;28;20459;-70
2024/01/04 01:49:05;;;;;;;0.47;0.47;;;;;;;8.27;100.00;99676.81;10415034;28;20084;-70
2024/01/04 01:54:06;;;;;;;1.73;1.73;;;;;;;8.27;100.00;99682.19;10412854;28;20484;-69
2024/01/04 01:59:06;;;;;;;9.90;4.07;;;;;;;8.27;100.00;99677.63;10414105;28;20069;-70
2024/01/04 02:04:07;;;;;;;0.50;0.50;;;;;;;8.28;100.00;99692.75;10412590;28;20021;-70
2024/01/04 02:09:07;;;;;;;1.42;1.35;;;;;;;8.26;100.00;99702.09;10413545;28;20082;-70
2024/01/04 02:14:07;;;;;;;1.58;1.55;;;;;;;8.24;100.00;99710.41;10428928;28;20428;-72
2024/01/04 02:19:11;;;;;;;0.68;0.68;;;;;;;8.35;100.00;99712.44;10413381;28;20061;-71
2024/01/04 02:24:11;;;;;;;1.05;1.05;;;;;;;8.45;100.00;99722.81;10413262;28;20041;-70
2024/01/04 02:29:11;;;;;;;0.75;0.75;;;;;;;8.49;100.00;99734.88;10413940;28;20051;-69
2024/01/04 02:34:12;;;;;;;0.47;0.47;;;;;;;8.46;100.00;99732.59;10412408;28;20060;-69
2024/01/04 02:39:12;;;;;;;4.38;4.18;;;;;;;8.49;100.00;99745.66;10411596;28;20038;-69
2024/01/04 02:44:13;;;;;;;0.30;0.30;;;;;;;8.54;100.00;99742.31;10411972;28;20072;-69
2024/01/04 02:49:13;;;;;;;1.75;1.75;;;;;;;8.64;100.00;99749.94;10413336;28;20054;-69
2024/01/04 02:54:14;;;;;;;0.35;0.35;;;;;;;8.62;100.00;99750.19;10412876;28;20048;-70
2024/01/04 02:59:14;;;;;;;1.85;1.85;;;;;;;8.64;100.00;99756.19;10412178;28;20071;-69
2024/01/04 03:04:15;;;;;;;0.35;0.35;;;;;;;8.68;100.00;99772.78;10427284;28;20026;-70
2024/01/04 03:09:15;;;;;;;0.47;0.47;;;;;;;8.67;100.00;99785.44;10410548;28;20038;-70
2024/01/04 03:14:16;;;;;;;1.05;1.05;;;;;;;8.53;100.00;99783.84;10413041;28;20038;-70
2024/01/04 03:19:16;;;;;;;0.32;0.32;;;;;;;8.38;100.00;99790.28;10419887;28;20038;-70
2024/01/04 03:24:16;;;;;;;1.33;1.33;;;;;;;8.19;100.00;99790.28;10417645;28;20037;-70
2024/01/04 03:29:18;;;;;;;0.88;0.88;;;;;;;8.12;100.00;99810.00;10417808;28;20443;-69
2024/01/04 03:34:19;;;;;;;1.25;1.25;;;;;;;8.25;100.00;99813.72;10420611;28;20080;-71
2024/01/04 03:39:19;;;;;;;0.95;0.95;;;;;;;8.30;100.00;99819.34;10420810;28;20488;-69
2024/01/04 03:44:20;;;;;;;0.40;0.40;;;;;;;8.39;100.00;99823.47;10427891;28;20176;-71
2024/01/04 03:49:20;;;;;;;1.33;1.33;;;;;;;8.47;100.00;99828.66;10417672;28;20108;-70
2024/01/04 03:54:20;;;;;;;0.43;0.43;;;;;;;8.53;100.00;99848.59;10417520;28;20076;-70
2024/01/04 03:59:21;;;;;;;1.10;1.10;;;;;;;8.54;100.00;99832.19;10419093;28;20084;-70
2024/01/04 04:04:21;;;;;;;0.40;0.40;;;;;;;8.45;100.00;99838.81;10416450;28;20484;-70
2024/01/04 04:09:22;;;;;;;0.50;0.50;;;;;;;8.45;100.00;99846.09;10416760;28;20448;-70
2024/01/04 04:14:22;;;;;;;0.50;0.50;;;;;;;8.45;100.00;99856.88;10418520;28;20037;-70
2024/01/04 04:19:22;;;;;;;0.40;0.40;;;;;;;8.45;100.00;99862.28;10418435;28;20040;-71
2024/01/04 04:24:24;;;;;;;0.40;0.40;;;;;;;8.39;100.00;99858.53;10416845;28;20037;-70
2024/01/04 04:29:24;;;;;;;0.40;0.40;;;;;;;8.46;100.00;99864.78;10416402;28;20051;-70
2024/01/04 04:34:24;;;;;;;4.50;2.50;;;;;;;8.52;100.00;99866.66;10416016;28;20045;-70
2024/01/04 04:39:25;;;;;;;0.57;0.57;;;;;;;8.58;100.00;99881.16;10415867;28;20041;-69
2024/01/04 04:44:25;;;;;;;2.17;2.08;;;;;;;8.57;100.00;99899.22;10414905;28;20052;-71
2024/01/04 04:49:28;;;;;;;0.30;0.30;;;;;;;8.31;100.00;99894.63;10416146;28;20128;-71
2024/01/04 04:54:28;;;;;;;0.40;0.40;;;;;;;8.00;100.00;99905.19;10414838;28;20120;-70
2024/01/04 04:59:28;;;;;;;0.47;0.47;;;;;;;7.85;100.00;99910.78;10415332;28;20033;-71
2024/01/04 05:04:29;;;;;;;0.52;0.52;;;;;;;7.82;100.00;99912.00;10415728;28;20045;-70
2024/01/04 05:09:29;;;;;;;0.30;0.30;;;;;;;7.87;100.00;99914.06;10414316;28;20033;-70
2024/01/04 05:14:30;;;;;;;0.40;0.40;;;;;;;7.97;100.00;99924.47;10415331;28;20484;-70
2024/01/04 05:19:30;;;;;;;0.57;0.57;;;;;;;8.08;100.00;99930.09;10415067;28;20033;-70
2024/01/04 05:24:30;;;;;;;0.50;0.50;;;;;;;8.12;100.00;99925.13;10414173;28;20034;-70
2024/01/04 05:29:31;;;;;;;0.40;0.40;;;;;;;8.12;100.00;99928.63;10413415;28;20493;-70
2024/01/04 05:34:32;;;;;;;0.90;0.90;;;;;;;8.02;100.00;99928.22;10415227;28;20038;-70
2024/01/04 05:39:32;;;;;;;0.30;0.30;;;;;;;7.92;100.00;99949.34;10411637;28;20041;-70
2024/01/04 05:44:33;;;;;;;0.40;0.40;;;;;;;7.88;100.00;99948.94;10414179;28;20377;-70
2024/01/04 05:49:33;;;;;;;0.95;0.95;;;;;;;7.96;100.00;99961.38;10413956;28;20058;-71
2024/01/04 05:54:33;;;;;;;0.50;0.50;;;;;;;8.09;100.00;99969.50;10413264;28;20091;-70
2024/01/04 05:59:34;;;;;;;0.40;0.40;;;;;;;8.16;100.00;99969.50;10418756;28;20082;-69
2024/01/04 06:04:34;;;;;;;0.60;0.60;;;;;;;8.22;100.00;99974.09;10413209;28;20499;-70
2024/01/04 06:09:35;;;;;;;0.55;0.55;;;;;;;8.31;100.00;99985.53;10427899;28;20453;-70
2024/01/04 06:14:35;;;;;;;0.85;0.85;;;;;;;8.32;100.00;99988.00;10412530;28;20044;-70
2024/01/04 06:19:35;;;;;;;2.70;2.55;;;;;;;8.34;100.00;99991.34;10420736;28;20074;-70
2024/01/04 06:24:36;;;;;;;15.70;4.03;;;;;;;8.42;100.00;100000.28;10422980;28;20041;-70
2024/01/04 06:29:36;;;;;;;1.02;1.02;;;;;;;8.42;100.00;100009.22;10412554;28;20077;-69
2024/01/04 06:34:36;;;;;;;0.32;0.32;;;;;;;8.44;100.00;100011.72;10411245;28;20025;-70
2024/01/04 06:39:37;;;;;;;0.93;0.93;;;;;;;8.43;100.00;100019.00;10412974;28;20048;-70
2024/01/04 06:44:37;;;;;;;0.40;0.40;;;;;;;8.41;100.00;100034.53;10412867;28;20033;-70
2024/01/04 06:49:39;;;;;;;0.50;0.50;;;;;;;8.45;100.00;100040.34;10393653;28;20095;-70
2024/01/04 06:54:39;;;;;;;0.50;0.50;;;;;;;8.46;100.00;100045.56;10411073;28;20087;-70
2024/01/04 06:59:40;;;;;;;0.95;0.95;;;;;;;8.37;100.00;100052.97;10411003;28;20523;-70
2024/01/04 07:04:40;;;;;;;0.43;0.43;;;;;;;8.30;100.00;100056.69;10427523;28;20025;-70
2024/01/04 07:09:41;;;;;;;0.50;0.50;;;;;;;8.06;100.00;100064.28;10410507;28;20120;-70
2024/01/04 07:14:41;;;;;;;0.60;0.60;;;;;;;7.88;100.00;100077.47;10427694;28;20091;-70
2024/01/04 07:19:43;;;;;;;0.40;0.40;;;;;;;7.82;100.00;100083.69;10410752;28;20465;-69
2024/01/04 07:24:43;;;;;;;0.50;0.50;;;;;;;7.91;100.00;100083.31;10411681;28;20475;-70
2024/01/04 07:29:43;;;;;;;1.17;1.17;;;;;;;7.93;100.00;100081.22;10411697;28;20129;-70
2024/01/04 07:34:44;;;;;;;0.30;0.30;;;;;;;7.90;100.00;100094.28;10411083;28;20033;-70
2024/01/04 07:39:45;;;;;;;0.60;0.60;;;;;;;7.76;100.00;100098.78;10411390;28;20033;-70
2024/01/04 07:44:45;;;;;;;0.60;0.60;;;;;;;7.75;100.00;100104.34;10411722;28;20083;-69
2024/01/04 07:49:46;;;;;;;1.08;1.08;;;;;;;7.76;100.00;100120.34;10410915;28;20040;-70
2024/01/04 07:54:46;;;;;;;0.40;0.40;;;;;;;7.80;100.00;100128.84;10411587;28;20453;-69
2024/01/04 07:59:47;;;;;;;12.60;5.50;;;;;;;7.84;100.00;100132.81;10410259;28;20424;-71
2024/01/04 08:04:47;;;;;;;0.40;0.40;;;;;;;7.89;100.00;100127.66;10417086;28;20085;-70
2024/01/04 08:09:48;;;;;;;0.40;0.40;;;;;;;7.92;100.00;100130.78;10417551;28;20329;-70
2024/01/04 08:14:48;;;;;;;0.30;0.30;;;;;;;7.83;100.00;100128.47;10422725;28;20376;-70
2024/01/04 08:19:48;;;;;;;0.50;0.50;;;;;;;7.79;100.00;100132.59;10420930;28;20334;-70
2024/01/04 08:24:49;;;;;;;0.45;0.45;;;;;;;7.82;100.00;100140.28;10418372;28;20091;-70
2024/01/04 08:29:50;;;;;;;0.50;0.50;;;;;;;7.82;100.00;100126.81;10417465;28;20053;-69
2024/01/04 08:34:51;;;;;;;0.47;0.47;;;;;;;7.81;100.00;100138.59;10417597;28;20060;-70
2024/01/04 08:39:52;;;;;;;0.50;0.50;;;;;;;7.88;100.00;100151.09;10417410;28;20041;-69
2024/01/04 08:44:53;;;;;;;0.65;0.65;;;;;;;8.03;100.00;100145.56;10432022;28;20029;-70
2024/01/04 08:49:53;;;;;;;0.50;0.50;;;;;;;8.07;100.00;100152.25;10431125;28;20029;-70
2024/01/04 08:54:54;;;;;;;0.40;0.40;;;;;;;8.13;100.00;100161.38;10416000;28;20029;-70
2024/01/04 08:59:54;;;;;;;0.40;0.40;;;;;;;8.26;100.00;100169.53;10415410;28;20479;-70
2024/01/04 09:04:55;;;;;;;0.50;0.50;;;;;;;8.38;100.00;100176.06;10415664;28;20063;-70
2024/01/04 09:09:55;;;;;;;0.50;0.50;;;;;;;8.36;100.00;100170.03;10415557;28;20043;-70
2024/01/04 09:14:55;;;;;;;3.13;2.45;;;;;;;8.76;100.00;100169.34;10413370;28;20453;-70
2024/01/04 09:19:57;;;;;;;0.50;0.50;;;;;;;9.07;100.00;100187.69;10415596;28;20072;-69
2024/01/04 09:24:57;;;;;;;0.40;0.40;;;;;;;9.40;100.00;100182.31;10414693;28;20455;-69
2024/01/04 09:29:58;;;;;;;0.70;0.70;;;;;;;9.30;100.00;100195.41;10415962;28;20083;-70
2024/01/04 09:34:59;;;;;;;0.82;0.80;;;;;;;9.21;100.00;100197.47;10413951;28;20045;-70
2024/01/04 09:40:00;;;;;;;0.40;0.40;;;;;;;9.08;100.00;100205.56;10414966;28;20029;-69
2024/01/04 09:45:00;;;;;;;0.50;0.50;;;;;;;9.02;100.00;100209.91;10414889;28;20053;-69
2024/01/04 09:50:01;;;;;;;9.20;3.55;;;;;;;8.99;100.00;100223.00;10414131;28;20543;-69
2024/01/04 09:55:03;;;;;;;6.13;1.05;;;;;;;8.92;100.00;100225.66;10428313;28;20108;-69
2024/01/04 10:00:04;;;;;;;0.50;0.50;;;;;;;8.81;100.00;100242.47;10427452;28;20101;-70
2024/01/04 10:05:05;;;;;;;0.47;0.47;;;;;;;9.25;100.00;100247.38;10428522;28;20045;-70
2024/01/04 10:10:06;;;;;;;0.40;0.40;;;;;;;9.47;100.00;100266.09;10413135;28;20136;-69
2024/01/04 10:15:08;;;;;;;0.50;0.50;;;;;;;9.05;100.00;100258.13;10411926;28;20047;-69
2024/01/04 10:20:09;;;;;;;0.50;0.50;;;;;;;8.64;100.00;100270.81;10414052;28;20029;-70
2024/01/04 10:25:10;;;;;;;15.50;1.35;;;;;;;8.49;100.00;100273.69;10410740;28;20029;-71
2024/01/04 10:30:10;;;;;;;0.38;0.38;;;;;;;8.63;100.00;100271.88;10429660;28;20133;-72
2024/01/04 10:35:11;;;;;;;0.43;0.43;;;;;;;8.73;100.00;100275.03;10417536;28;20140;-71
2024/01/04 10:40:11;;;;;;;0.40;0.40;;;;;;;8.84;100.00;100267.19;10419082;28;20402;-71
2024/01/04 10:45:14;;;;;;;0.50;0.50;;;;;;;9.13;100.00;100258.97;10416473;28;20029;-71
2024/01/04 10:50:14;;;;;;;0.32;0.32;;;;;;;9.48;100.00;100276.72;10418086;28;20037;-72
2024/01/04 10:55:15;;;;;;;0.70;0.70;;;;;;;9.55;100.00;100258.63;10411336;28;20081;-71
2024/01/04 11:00:16;;;;;;;0.55;0.55;;;;;;;9.57;100.00;100254.88;10410980;28;20410;-71
2024/01/04 11:05:17;;;;;;;0.60;0.60;;;;;;;9.55;100.00;100260.50;10426461;28;20029;-72
2024/01/04 11:10:17;;;;;;;0.50;0.50;;;;;;;9.54;100.00;100265.09;10410646;28;20441;-71
2024/01/04 11:15:18;;;;;;;3.70;2.25;;;;;;;9.48;100.00;100271.31;10410575;28;20065;-71
2024/01/04 11:20:42;;;;;;;0.47;0.47;;;;;;;9.55;100.00;100258.63;10409172;28;20117;-71
2024/01/04 11:25:45;;;;;;;0.38;0.38;;;;;;;9.61;100.00;100264.25;10411089;28;20084;-72
2024/01/04 11:30:50;;;;;;;0.50;0.50;;;;;;;9.97;100.00;100255.72;10411144;28;20036;-71
2024/01/04 11:35:51;;;;;;;0.60;0.60;;;;;;;9.89;100.00;100259.50;10411043;28;20029;-72
2024/01/04 11:40:51;;;;;;;0.60;0.60;;;;;;;9.74;100.00;100262.38;10434621;28;20132;-70
2024/01/04 11:45:52;;;;;;;0.47;0.47;;;;;;;9.77;100.00;100261.16;10419918;28;20092;-71
2024/01/04 11:50:52;;;;;;;0.50;0.50;;;;;;;9.94;100.00;100262.38;10421424;28;20030;-70
2024/01/04 11:56:07;;;;;;;0.50;0.50;;;;;;;9.81;100.00;100266.97;10419931;28;20380;-70
2024/01/04 12:01:07;;;;;;;2.47;1.13;;;;;;;9.67;100.00;100266.13;10417807;28;20159;-70
2024/01/04 12:06:07;;;;;;;0.50;0.50;;;;;;;9.58;100.00;100270.91;10417897;28;20109;-70
2024/01/04 12:11:09;;;;;;;1.45;1.45;;;;;;;9.47;100.00;100275.03;10416795;28;20100;-69
2024/01/04 12:16:09;;;;;;;0.95;0.95;;;;;;;9.13;100.00;100275.19;10417673;28;20028;-69
2024/01/04 12:21:12;;;;;;;0.50;0.50;;;;;;;8.65;100.00;100277.88;10431894;28;20022;-70
2024/01/04 12:26:13;;;;;;;1.23;1.23;;;;;;;8.33;100.00;100282.91;10431353;28;20061;-71
2024/01/04 12:31:14;;;;;;;0.40;0.40;;;;;;;8.29;100.00;100287.00;10431917;28;20033;-71
2024/01/04 12:36:18;;;;;;;1.55;1.55;;;;;;;8.42;100.00;100287.09;10415935;28;20476;-70
2024/01/04 12:41:27;;;;;;;0.50;0.50;;;;;;;8.55;100.00;100284.50;10414742;28;20060;-71
2024/01/04 12:46:27;;;;;;;0.40;0.40;;;;;;;8.58;100.00;100267.06;10415170;28;20099;-71
2024/01/04 12:51:28;;;;;;;0.35;0.35;;;;;;;8.51;100.00;100277.00;10418610;28;20080;-71
2024/01/04 12:56:28;;;;;;;0.43;0.43;;;;;;;8.46;100.00;100268.69;10415871;28;20052;-71
2024/01/04 13:01:28;;;;;;;0.50;0.50;;;;;;;8.34;100.00;100274.59;10414970;28;20034;-71
2024/01/04 13:06:29;;;;;;;2.40;2.25;;;;;;;8.44;100.00;100276.13;10415484;28;20437;-71
2024/01/04 13:11:30;;;;;;;0.50;0.50;;;;;;;8.60;100.00;100273.09;10414537;28;20037;-71
2024/01/04 13:16:30;;;;;;;0.60;0.60;;;;;;;8.76;100.00;100277.31;10414394;28;20068;-71
2024/01/04 13:21:31;;;;;;;2.70;2.50;;;;;;;8.89;100.00;100280.06;10413812;28;20033;-71
2024/01/04 13:26:32;;;;;;;0.30;0.30;;;;;;;9.07;100.00;100274.97;10414512;28;20049;-71
2024/01/04 13:31:32;;;;;;;0.60;0.60;;;;;;;9.05;100.00;100281.59;10415253;28;20064;-71
2024/01/04 13:36:33;;;;;;;1.27;1.27;;;;;;;9.06;100.00;100270.59;10413662;28;20104;-71
2024/01/04 13:41:34;;;;;;;1.70;1.65;;;;;;;8.95;100.00;100276.56;10414118;28;20029;-71
2024/01/04 13:46:35;;;;;;;0.50;0.50;;;;;;;8.85;100.00;100273.41;10413822;28;20021;-71
2024/01/04 13:51:35;;;;;;;0.40;0.40;;;;;;;8.73;100.00;100272.34;10413786;28;20115;-71
2024/01/04 13:56:35;;;;;;;3.25;3.03;;;;;;;8.59;100.00;100266.88;10412064;28;20045;-72
2024/01/04 14:01:36;;;;;;;0.52;0.52;;;;;;;8.55;100.00;100271.00;10413734;28;20037;-71
2024/01/04 14:06:38;;;;;;;0.50;0.50;;;;;;;8.50;100.00;100278.03;10412398;28;20426;-71
2024/01/04 14:11:38;;;;;;;0.40;0.40;;;;;;;8.43;100.00;100275.31;10411737;28;20029;-71
2024/01/04 14:16:39;;;;;;;0.50;0.50;;;;;;;8.48;100.00;100278.22;10412791;28;20030;-71
2024/01/04 14:21:40;;;;;;;6.97;2.03;;;;;;;8.68;100.00;100282.88;10412522;28;20410;-71
2024/01/04 14:26:40;;;;;;;0.50;0.50;;;;;;;8.75;100.00;100278.38;10394606;28;20053;-71
2024/01/04 14:31:41;;;;;;;0.45;0.45;;;;;;;8.73;100.00;100288.53;10410574;28;20112;-71
2024/01/04 14:36:42;;;;;;;0.43;0.43;;;;;;;8.52;100.00;100284.03;10410225;28;20464;-71
2024/01/04 14:41:42;;;;;;;0.40;0.40;;;;;;;8.33;100.00;100281.03;10394343;28;20044;-71
2024/01/04 14:46:43;;;;;;;0.47;0.47;;;;;;;8.18;100.00;100284.84;10412374;28;20029;-71
2024/01/04 14:51:43;;;;;;;0.47;0.47;;;;;;;8.13;100.00;100269.25;10411877;28;20060;-70
2024/01/04 14:56:44;;;;;;;0.30;0.30;;;;;;;8.14;100.00;100284.44;10411673;28;20021;-71
2024/01/04 15:01:45;;;;;;;1.10;1.10;;;;;;;7.98;100.00;100285.56;10409969;28;20051;-70
2024/01/04 15:06:46;;;;;;;0.90;0.90;;;;;;;7.97;100.00;100283.84;10414817;28;20041;-71
2024/01/04 15:11:46;;;;;;;0.60;0.60;;;;;;;7.92;100.00;100286.31;10415537;28;20029;-71
2024/01/04 15:16:46;;;;;;;0.40;0.40;;;;;;;7.89;100.00;100286.72;10419711;28;20038;-71
2024/01/04 15:21:49;;;;;;;0.47;0.47;;;;;;;7.82;100.00;100285.84;10420757;28;20359;-71
2024/01/04 15:26:49;;;;;;;0.40;0.40;;;;;;;7.76;100.00;100281.22;10419606;28;20357;-71
2024/01/04 15:31:50;;;;;;;0.50;0.50;;;;;;;7.65;100.00;100288.78;10417798;28;20040;-70
2024/01/04 15:36:52;;;;;;;0.85;0.85;;;;;;;7.60;100.00;100283.16;10418930;28;20037;-70
2024/01/04 15:41:54;;;;;;;0.50;0.50;;;;;;;7.50;100.00;100289.88;10417637;28;20026;-70
2024/01/04 15:46:54;;;;;;;0.50;0.50;;;;;;;7.48;100.00;100287.38;10418631;28;20044;-70
2024/01/04 15:51:55;;;;;;;2.22;2.13;;;;;;;7.47;100.00;100291.13;10419192;28;20087;-71
2024/01/04 15:56:55;;;;;;;0.82;0.82;;;;;;;7.46;100.00;100300.19;10416863;28;20363;-70
2024/01/04 16:01:58;;;;;;;0.40;0.40;;;;;;;7.41;100.00;100287.31;10418055;28;20046;-70
2024/01/04 16:06:58;;;;;;;0.70;0.70;;;;;;;7.34;100.00;100286.44;10417435;28;20518;-71
2024/01/04 16:11:59;;;;;;;0.30;0.30;;;;;;;7.39;100.00;100288.53;10418385;28;20029;-70
2024/01/04 16:16:59;;;;;;;2.72;0.85;;;;;;;7.43;100.00;100274.50;10417757;28;20057;-70
2024/01/04 16:22:00;;;;;;;0.50;0.50;;;;;;;7.44;100.00;100284.25;10417138;28;20113;-70
2024/01/04 16:27:02;;;;;;;10.05;3.67;;;;;;;7.48;100.00;100292.78;10414844;28;20056;-70
2024/01/04 16:32:04;;;;;;;0.52;0.52;;;;;;;7.48;100.00;100282.00;10417401;28;20504;-70
2024/01/04 16:37:05;;;;;;;0.95;0.95;;;;;;;7.41;100.00;100286.50;10416251;28;20426;-70
2024/01/04 16:42:05;;;;;;;0.40;0.40;;;;;;;7.43;100.00;100277.19;10416419;28;20078;-70
2024/01/04 16:47:06;;;;;;;1.27;1.20;;;;;;;7.39;100.00;100277.75;10414978;28;20068;-70
2024/01/04 16:52:07;;;;;;;0.50;0.50;;;;;;;7.35;100.00;100285.41;10414605;28;20480;-70
2024/01/04 16:57:07;;;;;;;0.52;0.52;;;;;;;7.33;100.00;100278.53;10415975;28;20025;-69
2024/01/04 17:02:08;;;;;;;0.52;0.52;;;;;;;7.29;100.00;100269.16;10416358;28;20042;-70
2024/01/04 17:07:08;;;;;;;6.10;5.63;;;;;;;7.25;100.00;100271.41;10415216;28;20124;-73
2024/01/04 17:12:10;;;;;;;0.50;0.50;;;;;;;7.10;100.00;100266.06;10415894;28;20416;-70
2024/01/04 17:17:11;;;;;;;11.63;4.13;;;;;;;7.11;100.00;100264.19;10400587;28;20101;-70
2024/01/04 17:22:11;;;;;;;26.58;7.97;;;;;;;7.19;100.00;100264.09;10434135;28;20034;-70
2024/01/04 17:27:12;;;;;;;0.38;0.38;;;;;;;7.25;100.00;100259.81;10414918;28;20053;-70
2024/01/04 17:32:12;;;;;;;9.63;2.15;;;;;;;7.33;100.00;100267.75;10414651;28;20117;-70
2024/01/04 17:37:13;;;;;;;0.50;0.50;;;;;;;7.37;100.00;100261.81;10413900;28;20056;-71
2024/01/04 17:42:13;;;;;;;0.50;0.50;;;;;;;7.42;100.00;100256.66;10430575;28;20025;-70
2024/01/04 17:47:14;;;;;;;0.30;0.30;;;;;;;7.42;100.00;100255.81;10412671;28;20026;-71
2024/01/04 17:52:19;;;;;;;1.38;1.38;;;;;;;7.48;100.00;100255.06;10414010;28;20081;-70
2024/01/04 17:57:21;;;;;;;0.50;0.50;;;;;;;7.52;100.00;100252.81;10414344;28;20053;-70
2024/01/04 18:02:21;;;;;;;0.50;0.50;;;;;;;7.53;100.00;100249.94;10413617;28;20068;-70
2024/01/04 18:07:21;;;;;;;11.05;1.88;;;;;;;7.58;100.00;100252.03;10413071;28;20430;-71
2024/01/04 18:12:22;;;;;;;0.68;0.68;;;;;;;7.58;100.00;100233.16;10412753;28;20441;-70
2024/01/04 18:17:23;;;;;;;3.22;3.13;;;;;;;7.52;100.00;100234.78;10414359;28;20033;-71
2024/01/04 18:22:24;;;;;;;1.55;1.55;;;;;;;7.43;100.00;100234.09;10412753;28;20499;-70
2024/01/04 18:27:24;;;;;;;0.40;0.40;;;;;;;7.48;100.00;100235.38;10413165;28;20057;-71
2024/01/04 18:32:25;;;;;;;0.40;0.40;;;;;;;7.49;100.00;100229.78;10413284;28;20107;-71
2024/01/04 18:37:25;;;;;;;3.78;3.60;;;;;;;7.48;100.00;100228.13;10413478;28;20433;-70
2024/01/04 18:42:25;;;;;;;4.00;3.80;;;;;;;7.49;100.00;100227.09;10412860;28;20484;-70
2024/01/04 18:47:26;;;;;;;0.90;0.90;;;;;;;7.49;100.00;100208.22;10411775;28;20025;-70
2024/01/04 18:52:26;;;;;;;0.50;0.50;;;;;;;7.52;100.00;100202.44;10411328;28;20364;-70
2024/01/04 18:57:27;;;;;;;0.40;0.40;;;;;;;7.49;100.00;100181.28;10412292;28;20028;-71
2024/01/04 19:02:28;;;;;;;0.45;0.45;;;;;;;7.51;100.00;100173.03;10413358;28;20052;-70
2024/01/04 19:07:28;;;;;;;0.60;0.60;;;;;;;7.55;100.00;100176.97;10411667;28;20033;-71
2024/01/04 19:12:29;;;;;;;0.75;0.75;;;;;;;7.56;100.00;100171.41;10411018;28;20465;-71
2024/01/04 19:17:31;;;;;;;21.65;7.35;;;;;;;7.59;100.00;100156.69;10412476;28;20095;-71
2024/01/04 19:22:31;;;;;;;15.55;7.90;;;;;;;7.58;100.00;100158.56;10412335;28;20025;-70
2024/01/04 19:27:33;;;;;;;23.23;7.47;;;;;;;7.62;100.00;100161.69;10415759;28;20060;-70
2024/01/04 19:32:33;;;;;;;15.55;7.43;;;;;;;7.57;100.00;100156.06;10411477;28;20041;-70
2024/01/04 19:37:34;;;;;;;16.77;6.60;;;;;;;7.59;100.00;100149.44;10410996;28;20436;-70
2024/01/04 19:42:34;;;;;;;20.10;8.63;;;;;;;7.61;100.00;100139.31;10411535;28;20076;-71
2024/01/04 19:47:34;;;;;;;18.27;8.27;;;;;;;7.54;100.00;100129.53;10409902;28;20029;-75
2024/01/04 19:52:35;;;;;;;15.95;6.93;;;;;;;7.54;100.00;100119.56;10409486;28;20048;-74
2024/01/04 19:57:35;;;;;;;28.92;7.32;;;;;;;7.60;100.00;100118.78;10414028;28;20037;-72
2024/01/04 20:02:36;;;;;;;23.42;7.57;;;;;;;7.64;100.00;100113.84;10419174;28;20090;-71
2024/01/04 20:07:36;;;;;;;0.55;0.55;;;;;;;7.63;100.00;100112.19;10417808;28;20028;-71
2024/01/04 20:12:37;;;;;;;3.40;3.20;;;;;;;7.63;100.00;100098.72;10433791;28;20045;-72
2024/01/04 20:17:37;;;;;;;0.90;0.90;;;;;;;7.61;100.00;100090.81;10416013;28;20114;-73
2024/01/04 20:22:38;;;;;;;5.45;4.95;;;;;;;7.60;100.00;100086.47;10417074;28;20040;-72
2024/01/04 20:27:41;;;;;;;3.08;0.93;;;;;;;7.57;100.00;100069.84;10417150;28;20049;-72
2024/01/04 20:32:43;;;;;;;0.77;0.77;;;;;;;7.54;100.00;100059.47;10417223;28;20034;-71
2024/01/04 20:37:44;;;;;;;1.52;1.45;;;;;;;7.50;100.00;100056.34;10416743;28;20025;-72
2024/01/04 20:42:45;;;;;;;0.60;0.60;;;;;;;7.43;100.00;100047.38;10416737;28;20484;-72
2024/01/04 20:47:47;;;;;;;31.30;6.68;;;;;;;7.46;100.00;100038.91;10416752;28;20373;-71
2024/01/04 20:52:47;;;;;;;0.98;0.98;;;;;;;7.42;100.00;100021.47;10414906;28;20438;-72
2024/01/04 20:57:48;;;;;;;0.88;0.88;;;;;;;7.40;100.00;100019.00;10416126;28;20163;-72
2024/01/04 21:02:48;;;;;;;0.60;0.60;;;;;;;7.37;100.00;100003.22;10415547;28;20030;-72
2024/01/04 21:07:48;;;;;;;1.35;1.30;;;;;;;7.27;100.00;99985.75;10415184;28;20030;-73
2024/01/04 21:12:49;;;;;;;25.15;6.32;;;;;;;7.27;100.00;99966.91;10415442;28;20029;-72
2024/01/04 21:17:49;;;;;;;1.05;1.05;;;;;;;7.27;100.00;99966.91;10414608;28;20101;-71
2024/01/04 21:22:50;;;;;;;0.50;0.50;;;;;;;7.31;100.00;99966.31;10415778;28;20098;-71
2024/01/04 21:27:50;;;;;;;0.70;0.70;;;;;;;7.34;100.00;99965.06;10416548;28;20350;-71
2024/01/04 21:32:50;;;;;;;1.40;1.40;;;;;;;7.39;100.00;99959.94;10415488;28;20033;-71
2024/01/04 21:37:51;;;;;;;0.32;0.32;;;;;;;7.35;100.00;99951.41;10413184;28;20029;-71
2024/01/04 21:42:51;;;;;;;0.47;0.47;;;;;;;7.34;100.00;99933.59;10414342;28;20029;-70
2024/01/04 21:47:51;;;;;;;0.93;0.93;;;;;;;7.35;100.00;99929.88;10414347;28;20033;-70
2024/01/04 21:52:52;;;;;;;5.25;2.55;;;;;;;7.34;100.00;99913.91;10414335;28;20433;-70
2024/01/04 21:57:52;;;;;;;0.85;0.85;;;;;;;7.23;100.00;99886.50;10414301;28;20360;-70
2024/01/04 22:02:53;;;;;;;0.70;0.70;;;;;;;7.21;100.00;99880.53;10414490;28;20041;-71
2024/01/04 22:07:53;;;;;;;0.50;0.50;;;;;;;7.33;100.00;99888.00;10413537;28;20112;-71
2024/01/04 22:12:54;;;;;;;0.75;0.75;;;;;;;7.34;100.00;99873.50;10428353;28;20056;-71
2024/01/04 22:17:54;;;;;;;4.38;2.38;;;;;;;7.32;100.00;99865.63;10412718;28;20457;-71
2024/01/04 22:22:54;;;;;;;3.40;3.15;;;;;;;7.35;100.00;99853.63;10412990;28;20033;-71
2024/01/04 22:27:55;;;;;;;2.35;2.25;;;;;;;7.34;100.00;99858.19;10413255;28;20046;-71
2024/01/04 22:32:55;;;;;;;1.00;1.00;;;;;;;7.42;100.00;99846.41;10412062;28;20037;-71
2024/01/04 22:37:56;;;;;;;0.40;0.40;;;;;;;7.37;100.00;99832.69;10412513;28;20434;-71
2024/01/04 22:42:56;;;;;;;1.48;1.48;;;;;;;7.45;100.00;99829.84;10411868;28;20029;-71
2024/01/04 22:47:58;;;;;;;0.70;0.70;;;;;;;7.33;100.00;99816.13;10412964;28;20065;-71
2024/01/04 22:52:58;;;;;;;0.60;0.60;;;;;;;7.42;100.00;99804.13;10413112;28;20120;-70
2024/01/04 22:57:58;;;;;;;4.07;2.55;;;;;;;7.44;100.00;99801.25;10427534;28;20022;-70
2024/01/04 23:02:59;;;;;;;0.50;0.50;;;;;;;7.50;100.00;99797.75;10412840;28;20033;-71
2024/01/04 23:08:00;;;;;;;9.18;2.90;;;;;;;7.53;100.00;99775.78;10410011;28;20032;-70